sensor_id;sensor_type;location;lat;lon;timestamp;pressure;altitude;pressure_sealevel;temperature;humidity
7026;BME280;3554;42.132;24.786;2023-03-18T00:00:13;99917.41;;;5.64;100.00
7026;BME280;3554;42.132;24.786;2023-03-18T00:02:42;99917.31;;;5.69;100.00
7026;BME280;3554;42.132;24.786;2023-03-18T00:05:10;99797.88;;;5.03;100.00
7026;BME280;3554;42.132;24.786;2023-03-18T00:07:40;99915.72;;;5.59;100.00
7026;BME280;3554;42.132;24.786;2023-03-18T00:10:09;99905.00;;;5.86;100.00
7026;BME280;3554;42.132;24.786;2023-03-18T00:12:36;99909.25;;;5.91;100.00
7026;BME280;3554;42.132;24.786;2023-03-18T00:15:06;99901.50;;;5.90;100.00
7026;BME280;3554;42.132;24.786;2023-03-18T00:17:33;99902.25;;;5.99;100.00
7026;BME280;3554;42.132;24.786;2023-03-18T00:20:02;99845.50;;;5.66;100.00
7026;BME280;3554;42.132;24.786;2023-03-18T00:22:31;99894.47;;;5.96;100.00
7026;BME280;3554;42.132;24.786;2023-03-18T00:25:00;99887.53;;;5.97;100.00
7026;BME280;3554;42.132;24.786;2023-03-18T00:27:27;99892.44;;;6.18;100.00
7026;BME280;3554;42.132;24.786;2023-03-18T00:29:54;99886.38;;;6.19;100.00
7026;BME280;3554;42.132;24.786;2023-03-18T00:32:21;99894.84;;;6.31;100.00
7026;BME280;3554;42.132;24.786;2023-03-18T00:34:49;99894.50;;;6.53;100.00
7026;BME280;3554;42.132;24.786;2023-03-18T00:37:16;99887.88;;;6.32;100.00
7026;BME280;3554;42.132;24.786;2023-03-18T00:39:55;99882.06;;;6.16;100.00
7026;BME280;3554;42.132;24.786;2023-03-18T00:42:23;99883.47;;;6.38;100.00
7026;BME280;3554;42.132;24.786;2023-03-18T00:44:50;99876.34;;;6.48;100.00
7026;BME280;3554;42.132;24.786;2023-03-18T00:47:17;99876.38;;;6.49;100.00
7026;BME280;3554;42.132;24.786;2023-03-18T00:49:43;99873.66;;;6.56;100.00
7026;BME280;3554;42.132;24.786;2023-03-18T00:52:10;99879.84;;;6.47;100.00
7026;BME280;3554;42.132;24.786;2023-03-18T00:54:38;99870.41;;;6.41;100.00
7026;BME280;3554;42.132;24.786;2023-03-18T00:57:05;99871.44;;;6.31;100.00
7026;BME280;3554;42.132;24.786;2023-03-18T00:59:33;99872.34;;;6.29;100.00
7026;BME280;3554;42.132;24.786;2023-03-18T01:02:00;99869.69;;;6.33;100.00
7026;BME280;3554;42.132;24.786;2023-03-18T01:04:28;99863.69;;;6.28;100.00
7026;BME280;3554;42.132;24.786;2023-03-18T01:06:55;99874.91;;;6.30;100.00
7026;BME280;3554;42.132;24.786;2023-03-18T01:09:22;99866.28;;;6.28;100.00
7026;BME280;3554;42.132;24.786;2023-03-18T01:11:49;99864.38;;;6.39;100.00
7026;BME280;3554;42.132;24.786;2023-03-18T01:14:17;99874.75;;;6.42;100.00
7026;BME280;3554;42.132;24.786;2023-03-18T01:16:46;99872.19;;;6.39;100.00
7026;BME280;3554;42.132;24.786;2023-03-18T01:19:13;99872.06;;;6.47;100.00
7026;BME280;3554;42.132;24.786;2023-03-18T01:21:40;99867.59;;;6.57;100.00
7026;BME280;3554;42.132;24.786;2023-03-18T01:24:07;99855.50;;;6.53;100.00
7026;BME280;3554;42.132;24.786;2023-03-18T01:26:34;99866.75;;;6.55;100.00
7026;BME280;3554;42.132;24.786;2023-03-18T01:29:02;99864.16;;;6.51;100.00
7026;BME280;3554;42.132;24.786;2023-03-18T01:31:30;99851.28;;;6.45;100.00
7026;BME280;3554;42.132;24.786;2023-03-18T01:34:00;99863.22;;;6.57;100.00
7026;BME280;3554;42.132;24.786;2023-03-18T01:36:27;99860.59;;;6.60;100.00
7026;BME280;3554;42.132;24.786;2023-03-18T01:38:54;99856.22;;;6.61;100.00
7026;BME280;3554;42.132;24.786;2023-03-18T01:41:22;99856.25;;;6.59;100.00
7026;BME280;3554;42.132;24.786;2023-03-18T01:43:50;99833.81;;;6.53;100.00
7026;BME280;3554;42.132;24.786;2023-03-18T01:46:33;99744.63;;;6.00;100.00
7026;BME280;3554;42.132;24.786;2023-03-18T01:49:05;99857.03;;;6.64;100.00
7026;BME280;3554;42.132;24.786;2023-03-18T01:51:33;99848.31;;;6.67;100.00
7026;BME280;3554;42.132;24.786;2023-03-18T01:54:02;99849.38;;;6.55;100.00
7026;BME280;3554;42.132;24.786;2023-03-18T01:56:32;99831.34;;;6.46;100.00
7026;BME280;3554;42.132;24.786;2023-03-18T01:59:00;99845.31;;;6.40;100.00
7026;BME280;3554;42.132;24.786;2023-03-18T02:01:30;99842.75;;;6.37;100.00
7026;BME280;3554;42.132;24.786;2023-03-18T02:03:59;99841.75;;;6.44;100.00
7026;BME280;3554;42.132;24.786;2023-03-18T02:06:29;99840.88;;;6.45;100.00
7026;BME280;3554;42.132;24.786;2023-03-18T02:08:57;99840.09;;;6.42;100.00
7026;BME280;3554;42.132;24.786;2023-03-18T02:11:24;99844.47;;;6.38;100.00
7026;BME280;3554;42.132;24.786;2023-03-18T02:13:53;99837.69;;;6.30;100.00
7026;BME280;3554;42.132;24.786;2023-03-18T02:16:22;99842.03;;;6.29;100.00
7026;BME280;3554;42.132;24.786;2023-03-18T02:18:53;99841.28;;;6.23;100.00
7026;BME280;3554;42.132;24.786;2023-03-18T02:21:34;99830.22;;;6.07;100.00
7026;BME280;3554;42.132;24.786;2023-03-18T02:24:22;99848.47;;;6.04;100.00
7026;BME280;3554;42.132;24.786;2023-03-18T02:26:56;99804.41;;;5.97;100.00
7026;BME280;3554;42.132;24.786;2023-03-18T02:29:27;99835.41;;;6.10;100.00
7026;BME280;3554;42.132;24.786;2023-03-18T02:31:56;99848.91;;;6.30;100.00
7026;BME280;3554;42.132;24.786;2023-03-18T02:34:28;99834.41;;;6.17;100.00
7026;BME280;3554;42.132;24.786;2023-03-18T02:36:56;99842.13;;;6.22;100.00
7026;BME280;3554;42.132;24.786;2023-03-18T02:39:23;99836.16;;;6.17;100.00
7026;BME280;3554;42.132;24.786;2023-03-18T02:41:50;99850.69;;;6.30;100.00
7026;BME280;3554;42.132;24.786;2023-03-18T02:44:17;99845.75;;;6.12;100.00
7026;BME280;3554;42.132;24.786;2023-03-18T02:46:51;99837.03;;;6.16;100.00
7026;BME280;3554;42.132;24.786;2023-03-18T02:49:21;99843.97;;;6.15;100.00
7026;BME280;3554;42.132;24.786;2023-03-18T02:51:49;99842.28;;;6.13;100.00
7026;BME280;3554;42.132;24.786;2023-03-18T02:54:18;99845.59;;;6.22;100.00
7026;BME280;3554;42.132;24.786;2023-03-18T02:56:46;99847.34;;;6.22;100.00
7026;BME280;3554;42.132;24.786;2023-03-18T02:59:13;99847.38;;;6.19;100.00
7026;BME280;3554;42.132;24.786;2023-03-18T03:01:41;99839.59;;;6.19;100.00
7026;BME280;3554;42.132;24.786;2023-03-18T03:04:11;99858.53;;;6.25;100.00
7026;BME280;3554;42.132;24.786;2023-03-18T03:06:38;99855.06;;;6.26;100.00
7026;BME280;3554;42.132;24.786;2023-03-18T03:09:07;99804.38;;;5.98;100.00
7026;BME280;3554;42.132;24.786;2023-03-18T03:11:34;99861.06;;;6.28;100.00
7026;BME280;3554;42.132;24.786;2023-03-18T03:14:02;99835.31;;;6.15;100.00
7026;BME280;3554;42.132;24.786;2023-03-18T03:16:29;99856.19;;;6.10;100.00
7026;BME280;3554;42.132;24.786;2023-03-18T03:18:55;99789.97;;;5.76;100.00
7026;BME280;3554;42.132;24.786;2023-03-18T03:21:24;99853.59;;;6.10;100.00
7026;BME280;3554;42.132;24.786;2023-03-18T03:23:52;99856.88;;;6.20;100.00
7026;BME280;3554;42.132;24.786;2023-03-18T03:26:20;99862.13;;;6.17;100.00
7026;BME280;3554;42.132;24.786;2023-03-18T03:28:47;99841.38;;;6.15;100.00
7026;BME280;3554;42.132;24.786;2023-03-18T03:31:14;99858.66;;;6.18;100.00
7026;BME280;3554;42.132;24.786;2023-03-18T03:33:41;99861.50;;;6.01;100.00
7026;BME280;3554;42.132;24.786;2023-03-18T03:36:10;99852.69;;;6.11;100.00
7026;BME280;3554;42.132;24.786;2023-03-18T03:38:39;99842.50;;;5.96;100.00
7026;BME280;3554;42.132;24.786;2023-03-18T03:41:09;99859.63;;;6.11;100.00
7026;BME280;3554;42.132;24.786;2023-03-18T03:43:36;99865.63;;;6.14;100.00
7026;BME280;3554;42.132;24.786;2023-03-18T03:46:03;99853.47;;;6.16;100.00
7026;BME280;3554;42.132;24.786;2023-03-18T03:48:30;99864.72;;;6.18;100.00
7026;BME280;3554;42.132;24.786;2023-03-18T03:50:57;99861.22;;;6.21;100.00
7026;BME280;3554;42.132;24.786;2023-03-18T03:53:24;99862.06;;;6.21;100.00
7026;BME280;3554;42.132;24.786;2023-03-18T03:55:53;99863.00;;;6.17;100.00
7026;BME280;3554;42.132;24.786;2023-03-18T03:58:21;99850.16;;;6.08;100.00
7026;BME280;3554;42.132;24.786;2023-03-18T04:00:48;99867.31;;;6.18;100.00
7026;BME280;3554;42.132;24.786;2023-03-18T04:03:15;99861.25;;;6.18;100.00
7026;BME280;3554;42.132;24.786;2023-03-18T04:05:41;99870.94;;;6.08;100.00
7026;BME280;3554;42.132;24.786;2023-03-18T04:08:08;99813.31;;;5.78;100.00
7026;BME280;3554;42.132;24.786;2023-03-18T04:10:35;99872.69;;;6.06;100.00
7026;BME280;3554;42.132;24.786;2023-03-18T04:13:04;99876.22;;;6.02;100.00
7026;BME280;3554;42.132;24.786;2023-03-18T04:15:31;99864.88;;;6.08;100.00
7026;BME280;3554;42.132;24.786;2023-03-18T04:17:58;99862.19;;;6.14;100.00
7026;BME280;3554;42.132;24.786;2023-03-18T04:20:29;99869.97;;;6.15;100.00
7026;BME280;3554;42.132;24.786;2023-03-18T04:22:56;99869.84;;;6.21;100.00
7026;BME280;3554;42.132;24.786;2023-03-18T04:25:22;99873.34;;;6.20;100.00
7026;BME280;3554;42.132;24.786;2023-03-18T04:27:49;99882.34;;;5.97;100.00
7026;BME280;3554;42.132;24.786;2023-03-18T04:30:18;99876.22;;;6.01;100.00
7026;BME280;3554;42.132;24.786;2023-03-18T04:32:47;99873.44;;;6.14;100.00
7026;BME280;3554;42.132;24.786;2023-03-18T04:35:15;99874.31;;;6.13;100.00
7026;BME280;3554;42.132;24.786;2023-03-18T04:37:41;99880.38;;;6.14;100.00
7026;BME280;3554;42.132;24.786;2023-03-18T04:40:10;99876.78;;;6.22;100.00
7026;BME280;3554;42.132;24.786;2023-03-18T04:42:37;99875.97;;;6.19;100.00
7026;BME280;3554;42.132;24.786;2023-03-18T04:45:06;99870.13;;;6.05;100.00
7026;BME280;3554;42.132;24.786;2023-03-18T04:47:34;99883.97;;;6.04;100.00
7026;BME280;3554;42.132;24.786;2023-03-18T04:50:03;99879.72;;;6.00;100.00
7026;BME280;3554;42.132;24.786;2023-03-18T04:52:30;99883.22;;;5.97;100.00
7026;BME280;3554;42.132;24.786;2023-03-18T04:54:58;99878.22;;;5.84;100.00
7026;BME280;3554;42.132;24.786;2023-03-18T04:57:24;99879.88;;;5.88;100.00
7026;BME280;3554;42.132;24.786;2023-03-18T04:59:52;99885.88;;;5.94;100.00
7026;BME280;3554;42.132;24.786;2023-03-18T05:02:19;99879.94;;;5.83;100.00
7026;BME280;3554;42.132;24.786;2023-03-18T05:04:47;99876.47;;;5.83;100.00
7026;BME280;3554;42.132;24.786;2023-03-18T05:07:15;99883.38;;;5.87;100.00
7026;BME280;3554;42.132;24.786;2023-03-18T05:09:42;99879.97;;;5.79;100.00
7026;BME280;3554;42.132;24.786;2023-03-18T05:12:11;99887.03;;;5.69;100.00
7026;BME280;3554;42.132;24.786;2023-03-18T05:14:39;99880.91;;;5.73;100.00
7026;BME280;3554;42.132;24.786;2023-03-18T05:17:07;99878.22;;;5.81;100.00
7026;BME280;3554;42.132;24.786;2023-03-18T05:19:40;99813.06;;;5.33;100.00
7026;BME280;3554;42.132;24.786;2023-03-18T05:22:08;99869.56;;;5.79;100.00
7026;BME280;3554;42.132;24.786;2023-03-18T05:24:36;99885.16;;;5.83;100.00
7026;BME280;3554;42.132;24.786;2023-03-18T05:27:02;99878.31;;;5.72;100.00
7026;BME280;3554;42.132;24.786;2023-03-18T05:29:29;99892.84;;;5.89;100.00
7026;BME280;3554;42.132;24.786;2023-03-18T05:31:56;99889.16;;;6.07;100.00
7026;BME280;3554;42.132;24.786;2023-03-18T05:34:24;99899.53;;;6.05;100.00
7026;BME280;3554;42.132;24.786;2023-03-18T05:36:51;99896.22;;;5.97;100.00
7026;BME280;3554;42.132;24.786;2023-03-18T05:39:19;99898.03;;;5.89;100.00
7026;BME280;3554;42.132;24.786;2023-03-18T05:41:46;99903.19;;;5.94;100.00
7026;BME280;3554;42.132;24.786;2023-03-18T05:44:13;99907.47;;;5.96;100.00
7026;BME280;3554;42.132;24.786;2023-03-18T05:46:41;99904.81;;;6.01;100.00
7026;BME280;3554;42.132;24.786;2023-03-18T05:49:08;99897.97;;;5.94;100.00
7026;BME280;3554;42.132;24.786;2023-03-18T05:51:35;99904.16;;;5.85;100.00
7026;BME280;3554;42.132;24.786;2023-03-18T05:54:02;99904.03;;;5.96;100.00
7026;BME280;3554;42.132;24.786;2023-03-18T05:56:31;99899.66;;;5.98;100.00
7026;BME280;3554;42.132;24.786;2023-03-18T05:58:57;99905.59;;;6.06;100.00
7026;BME280;3554;42.132;24.786;2023-03-18T06:01:24;99907.25;;;6.11;100.00
7026;BME280;3554;42.132;24.786;2023-03-18T06:03:51;99907.28;;;6.10;100.00
7026;BME280;3554;42.132;24.786;2023-03-18T06:06:19;99906.25;;;6.20;100.00
7026;BME280;3554;42.132;24.786;2023-03-18T06:08:46;99904.34;;;6.32;100.00
7026;BME280;3554;42.132;24.786;2023-03-18T06:11:13;99911.44;;;6.23;100.00
7026;BME280;3554;42.132;24.786;2023-03-18T06:13:44;99894.25;;;6.13;100.00
7026;BME280;3554;42.132;24.786;2023-03-18T06:16:17;99901.84;;;6.25;100.00
7026;BME280;3554;42.132;24.786;2023-03-18T06:18:44;99895.34;;;5.97;100.00
7026;BME280;3554;42.132;24.786;2023-03-18T06:21:11;99905.59;;;6.07;100.00
7026;BME280;3554;42.132;24.786;2023-03-18T06:23:37;99899.50;;;6.10;100.00
7026;BME280;3554;42.132;24.786;2023-03-18T06:26:04;99902.19;;;6.02;100.00
7026;BME280;3554;42.132;24.786;2023-03-18T06:28:33;99886.66;;;5.96;100.00
7026;BME280;3554;42.132;24.786;2023-03-18T06:31:01;99898.56;;;6.15;100.00
7026;BME280;3554;42.132;24.786;2023-03-18T06:33:28;99881.28;;;6.11;100.00
7026;BME280;3554;42.132;24.786;2023-03-18T06:35:55;99891.28;;;6.37;100.00
7026;BME280;3554;42.132;24.786;2023-03-18T06:38:22;99895.56;;;6.39;100.00
7026;BME280;3554;42.132;24.786;2023-03-18T06:40:49;99848.13;;;6.25;100.00
7026;BME280;3554;42.132;24.786;2023-03-18T06:43:15;99909.06;;;6.63;100.00
7026;BME280;3554;42.132;24.786;2023-03-18T06:45:43;99893.28;;;6.73;100.00
7026;BME280;3554;42.132;24.786;2023-03-18T06:48:12;99889.94;;;6.67;100.00
7026;BME280;3554;42.132;24.786;2023-03-18T06:50:39;99887.31;;;6.68;100.00
7026;BME280;3554;42.132;24.786;2023-03-18T06:53:07;99882.09;;;6.68;100.00
7026;BME280;3554;42.132;24.786;2023-03-18T06:55:35;99869.97;;;6.69;100.00
7026;BME280;3554;42.132;24.786;2023-03-18T06:58:02;99882.88;;;6.73;100.00
7026;BME280;3554;42.132;24.786;2023-03-18T07:00:30;99877.41;;;6.90;100.00
7026;BME280;3554;42.132;24.786;2023-03-18T07:02:57;99872.09;;;6.94;100.00
7026;BME280;3554;42.132;24.786;2023-03-18T07:05:25;99883.22;;;7.04;100.00
7026;BME280;3554;42.132;24.786;2023-03-18T07:07:52;99880.53;;;7.08;100.00
7026;BME280;3554;42.132;24.786;2023-03-18T07:10:21;99890.97;;;7.05;100.00
7026;BME280;3554;42.132;24.786;2023-03-18T07:12:49;99880.31;;;7.20;100.00
7026;BME280;3554;42.132;24.786;2023-03-18T07:15:17;99894.94;;;7.26;100.00
7026;BME280;3554;42.132;24.786;2023-03-18T07:17:45;99888.50;;;7.45;100.00
7026;BME280;3554;42.132;24.786;2023-03-18T07:20:13;99891.97;;;7.45;100.00
7026;BME280;3554;42.132;24.786;2023-03-18T07:22:41;99896.66;;;7.70;100.00
7026;BME280;3554;42.132;24.786;2023-03-18T07:25:08;99887.44;;;7.53;100.00
7026;BME280;3554;42.132;24.786;2023-03-18T07:27:35;99899.09;;;7.79;100.00
7026;BME280;3554;42.132;24.786;2023-03-18T07:30:03;99830.13;;;7.55;100.00
7026;BME280;3554;42.132;24.786;2023-03-18T07:32:30;99828.69;;;7.80;100.00
7026;BME280;3554;42.132;24.786;2023-03-18T07:34:57;99883.50;;;8.17;100.00
7026;BME280;3554;42.132;24.786;2023-03-18T07:37:24;99876.19;;;8.32;100.00
7026;BME280;3554;42.132;24.786;2023-03-18T07:39:53;99887.34;;;8.39;100.00
7026;BME280;3554;42.132;24.786;2023-03-18T07:42:20;99879.09;;;8.55;100.00
7026;BME280;3554;42.132;24.786;2023-03-18T07:44:47;99886.06;;;8.55;100.00
7026;BME280;3554;42.132;24.786;2023-03-18T07:47:14;99882.59;;;8.54;100.00
7026;BME280;3554;42.132;24.786;2023-03-18T07:49:41;99862.28;;;8.69;100.00
7026;BME280;3554;42.132;24.786;2023-03-18T07:52:08;99865.06;;;8.61;100.00
7026;BME280;3554;42.132;24.786;2023-03-18T07:54:36;99893.41;;;8.75;100.00
7026;BME280;3554;42.132;24.786;2023-03-18T07:57:04;99891.03;;;8.65;100.00
7026;BME280;3554;42.132;24.786;2023-03-18T07:59:32;99894.97;;;8.46;100.00
7026;BME280;3554;42.132;24.786;2023-03-18T08:01:58;99888.59;;;8.21;100.00
7026;BME280;3554;42.132;24.786;2023-03-18T08:04:25;99890.91;;;8.35;100.00
7026;BME280;3554;42.132;24.786;2023-03-18T08:06:53;99893.28;;;8.44;100.00
7026;BME280;3554;42.132;24.786;2023-03-18T08:09:19;99902.88;;;8.43;100.00
7026;BME280;3554;42.132;24.786;2023-03-18T08:11:46;99906.78;;;8.23;100.00
7026;BME280;3554;42.132;24.786;2023-03-18T08:14:15;99904.78;;;7.97;100.00
7026;BME280;3554;42.132;24.786;2023-03-18T08:16:41;99917.38;;;7.77;100.00
7026;BME280;3554;42.132;24.786;2023-03-18T08:19:08;99905.47;;;7.64;100.00
7026;BME280;3554;42.132;24.786;2023-03-18T08:21:35;99910.16;;;7.00;100.00
7026;BME280;3554;42.132;24.786;2023-03-18T08:24:02;99901.16;;;7.17;100.00
7026;BME280;3554;42.132;24.786;2023-03-18T08:26:29;99888.63;;;7.37;100.00
7026;BME280;3554;42.132;24.786;2023-03-18T08:28:56;99905.53;;;7.61;100.00
7026;BME280;3554;42.132;24.786;2023-03-18T08:31:25;99902.41;;;7.85;100.00
7026;BME280;3554;42.132;24.786;2023-03-18T08:33:52;99905.69;;;7.95;100.00
7026;BME280;3554;42.132;24.786;2023-03-18T08:36:20;99903.75;;;8.04;100.00
7026;BME280;3554;42.132;24.786;2023-03-18T08:38:47;99871.53;;;8.07;100.00
7026;BME280;3554;42.132;24.786;2023-03-18T08:41:15;99895.56;;;7.81;100.00
7026;BME280;3554;42.132;24.786;2023-03-18T08:43:42;99897.56;;;8.10;100.00
7026;BME280;3554;42.132;24.786;2023-03-18T08:46:09;99904.66;;;8.41;100.00
7026;BME280;3554;42.132;24.786;2023-03-18T08:48:37;99909.88;;;8.41;100.00
7026;BME280;3554;42.132;24.786;2023-03-18T08:51:06;99912.94;;;8.58;100.00
7026;BME280;3554;42.132;24.786;2023-03-18T08:53:34;99911.72;;;8.73;100.00
7026;BME280;3554;42.132;24.786;2023-03-18T08:56:01;99916.13;;;8.71;100.00
7026;BME280;3554;42.132;24.786;2023-03-18T08:58:30;99917.41;;;8.89;100.00
7026;BME280;3554;42.132;24.786;2023-03-18T09:00:57;99924.81;;;8.72;100.00
7026;BME280;3554;42.132;24.786;2023-03-18T09:03:24;99926.56;;;8.71;100.00
7026;BME280;3554;42.132;24.786;2023-03-18T09:05:53;99925.28;;;8.87;100.00
7026;BME280;3554;42.132;24.786;2023-03-18T09:08:20;99932.66;;;8.72;100.00
7026;BME280;3554;42.132;24.786;2023-03-18T09:10:50;99926.94;;;8.16;100.00
7026;BME280;3554;42.132;24.786;2023-03-18T09:13:18;99929.78;;;8.06;100.00
7026;BME280;3554;42.132;24.786;2023-03-18T09:15:44;99941.16;;;8.02;100.00
7026;BME280;3554;42.132;24.786;2023-03-18T09:18:11;99946.28;;;8.05;100.00
7026;BME280;3554;42.132;24.786;2023-03-18T09:20:39;99938.94;;;8.23;100.00
7026;BME280;3554;42.132;24.786;2023-03-18T09:23:09;99931.03;;;8.29;100.00
7026;BME280;3554;42.132;24.786;2023-03-18T09:25:35;99935.81;;;8.47;100.00
7026;BME280;3554;42.132;24.786;2023-03-18T09:28:02;99946.38;;;8.78;100.00
7026;BME280;3554;42.132;24.786;2023-03-18T09:30:29;99950.53;;;8.87;100.00
7026;BME280;3554;42.132;24.786;2023-03-18T09:32:56;99950.25;;;8.97;100.00
7026;BME280;3554;42.132;24.786;2023-03-18T09:35:24;99941.88;;;8.85;100.00
7026;BME280;3554;42.132;24.786;2023-03-18T09:37:50;99947.50;;;9.03;100.00
7026;BME280;3554;42.132;24.786;2023-03-18T09:40:24;99948.50;;;8.98;100.00
7026;BME280;3554;42.132;24.786;2023-03-18T09:43:00;99948.41;;;9.02;100.00
7026;BME280;3554;42.132;24.786;2023-03-18T09:45:32;99942.41;;;8.99;100.00
7026;BME280;3554;42.132;24.786;2023-03-18T09:48:14;99945.94;;;8.61;100.00
7026;BME280;3554;42.132;24.786;2023-03-18T09:50:54;99969.25;;;8.30;100.00
7026;BME280;3554;42.132;24.786;2023-03-18T09:53:26;99967.66;;;8.22;100.00
7026;BME280;3554;42.132;24.786;2023-03-18T09:55:59;99970.94;;;8.31;100.00
7026;BME280;3554;42.132;24.786;2023-03-18T09:58:31;99967.13;;;8.47;100.00
7026;BME280;3554;42.132;24.786;2023-03-18T10:01:02;99970.63;;;8.46;100.00
7026;BME280;3554;42.132;24.786;2023-03-18T10:03:33;99974.94;;;8.49;100.00
7026;BME280;3554;42.132;24.786;2023-03-18T10:06:04;99970.88;;;8.36;100.00
7026;BME280;3554;42.132;24.786;2023-03-18T10:08:42;99973.00;;;8.57;100.00
7026;BME280;3554;42.132;24.786;2023-03-18T10:11:20;99933.50;;;8.35;100.00
7026;BME280;3554;42.132;24.786;2023-03-18T10:13:56;99966.81;;;8.61;100.00
7026;BME280;3554;42.132;24.786;2023-03-18T10:16:29;99955.44;;;8.65;100.00
7026;BME280;3554;42.132;24.786;2023-03-18T10:18:57;99981.19;;;8.79;100.00
7026;BME280;3554;42.132;24.786;2023-03-18T10:21:34;99932.72;;;8.67;100.00
7026;BME280;3554;42.132;24.786;2023-03-18T10:24:14;99985.03;;;8.99;100.00
7026;BME280;3554;42.132;24.786;2023-03-18T10:26:48;99966.41;;;8.79;100.00
7026;BME280;3554;42.132;24.786;2023-03-18T10:29:32;99987.53;;;9.04;100.00
7026;BME280;3554;42.132;24.786;2023-03-18T10:32:06;99978.88;;;9.02;100.00
7026;BME280;3554;42.132;24.786;2023-03-18T10:34:51;99980.53;;;9.04;100.00
7026;BME280;3554;42.132;24.786;2023-03-18T10:37:29;99977.25;;;9.31;100.00
7026;BME280;3554;42.132;24.786;2023-03-18T10:40:00;99974.94;;;9.53;100.00
7026;BME280;3554;42.132;24.786;2023-03-18T10:42:31;99986.13;;;9.58;100.00
7026;BME280;3554;42.132;24.786;2023-03-18T10:45:06;99980.34;;;9.77;100.00
7026;BME280;3554;42.132;24.786;2023-03-18T10:47:37;99979.72;;;9.69;100.00
7026;BME280;3554;42.132;24.786;2023-03-18T10:50:12;99984.97;;;10.00;100.00
7026;BME280;3554;42.132;24.786;2023-03-18T10:52:47;99948.41;;;9.68;100.00
7026;BME280;3554;42.132;24.786;2023-03-18T10:55:19;99973.41;;;10.07;100.00
7026;BME280;3554;42.132;24.786;2023-03-18T10:57:49;99984.38;;;9.89;100.00
7026;BME280;3554;42.132;24.786;2023-03-18T11:00:25;99986.06;;;9.59;100.00
7026;BME280;3554;42.132;24.786;2023-03-18T11:02:53;99977.88;;;9.73;100.00
7026;BME280;3554;42.132;24.786;2023-03-18T11:05:23;99976.06;;;9.75;100.00
7026;BME280;3554;42.132;24.786;2023-03-18T11:07:58;99971.66;;;9.77;100.00
7026;BME280;3554;42.132;24.786;2023-03-18T11:10:27;99968.72;;;9.57;100.00
7026;BME280;3554;42.132;24.786;2023-03-18T11:13:00;99983.69;;;9.52;100.00
7026;BME280;3554;42.132;24.786;2023-03-18T11:15:28;99956.09;;;9.40;100.00
7026;BME280;3554;42.132;24.786;2023-03-18T11:17:59;99974.78;;;9.59;100.00
7026;BME280;3554;42.132;24.786;2023-03-18T11:20:33;99968.88;;;9.51;100.00
7026;BME280;3554;42.132;24.786;2023-03-18T11:23:13;99972.22;;;9.57;100.00
7026;BME280;3554;42.132;24.786;2023-03-18T11:25:44;99961.47;;;9.36;100.00
7026;BME280;3554;42.132;24.786;2023-03-18T11:28:20;99967.75;;;9.61;100.00
7026;BME280;3554;42.132;24.786;2023-03-18T11:30:48;99963.69;;;9.82;100.00
7026;BME280;3554;42.132;24.786;2023-03-18T11:33:17;99960.72;;;9.31;100.00
7026;BME280;3554;42.132;24.786;2023-03-18T11:35:50;99960.75;;;8.96;100.00
7026;BME280;3554;42.132;24.786;2023-03-18T11:38:19;99949.91;;;9.44;100.00
7026;BME280;3554;42.132;24.786;2023-03-18T11:40:46;99959.63;;;9.71;100.00
7026;BME280;3554;42.132;24.786;2023-03-18T11:43:20;99962.72;;;10.16;100.00
7026;BME280;3554;42.132;24.786;2023-03-18T11:45:53;99942.84;;;10.38;100.00
7026;BME280;3554;42.132;24.786;2023-03-18T11:48:31;99957.25;;;10.79;96.18
7026;BME280;3554;42.132;24.786;2023-03-18T11:51:26;99950.84;;;10.61;96.74
7026;BME280;3554;42.132;24.786;2023-03-18T11:54:04;99929.91;;;10.34;99.19
7026;BME280;3554;42.132;24.786;2023-03-18T11:56:39;99960.34;;;10.36;97.46
7026;BME280;3554;42.132;24.786;2023-03-18T11:59:19;99955.03;;;9.80;99.08
7026;BME280;3554;42.132;24.786;2023-03-18T12:02:16;99942.81;;;10.11;98.14
7026;BME280;3554;42.132;24.786;2023-03-18T12:05:32;99941.13;;;10.37;95.42
7026;BME280;3554;42.132;24.786;2023-03-18T12:08:08;99937.47;;;10.70;93.14
7026;BME280;3554;42.132;24.786;2023-03-18T12:10:40;99940.56;;;10.55;91.66
7026;BME280;3554;42.132;24.786;2023-03-18T12:13:24;99935.59;;;10.74;93.17
7026;BME280;3554;42.132;24.786;2023-03-18T12:16:04;99915.09;;;10.60;92.26
7026;BME280;3554;42.132;24.786;2023-03-18T12:18:46;99931.44;;;10.41;93.53
7026;BME280;3554;42.132;24.786;2023-03-18T12:21:42;99932.00;;;10.50;93.58
7026;BME280;3554;42.132;24.786;2023-03-18T12:24:39;99931.41;;;10.68;90.14
7026;BME280;3554;42.132;24.786;2023-03-18T12:27:19;99880.16;;;10.06;92.99
7026;BME280;3554;42.132;24.786;2023-03-18T12:30:05;99912.72;;;10.25;93.38
7026;BME280;3554;42.132;24.786;2023-03-18T12:32:39;99931.66;;;10.33;93.21
7026;BME280;3554;42.132;24.786;2023-03-18T12:35:18;99929.47;;;10.47;92.37
7026;BME280;3554;42.132;24.786;2023-03-18T12:38:01;99927.28;;;10.61;93.75
7026;BME280;3554;42.132;24.786;2023-03-18T12:40:40;99923.88;;;10.86;91.79
7026;BME280;3554;42.132;24.786;2023-03-18T12:43:39;99918.63;;;11.12;88.58
7026;BME280;3554;42.132;24.786;2023-03-18T12:46:24;99916.63;;;11.18;86.00
7026;BME280;3554;42.132;24.786;2023-03-18T12:48:58;99911.88;;;11.05;84.24
7026;BME280;3554;42.132;24.786;2023-03-18T12:51:29;99910.16;;;10.77;84.90
7026;BME280;3554;42.132;24.786;2023-03-18T12:54:06;99908.44;;;10.50;86.72
7026;BME280;3554;42.132;24.786;2023-03-18T12:56:42;99906.03;;;10.44;87.68
7026;BME280;3554;42.132;24.786;2023-03-18T12:59:15;99888.03;;;10.34;88.88
7026;BME280;3554;42.132;24.786;2023-03-18T13:01:49;99851.06;;;10.17;90.22
7026;BME280;3554;42.132;24.786;2023-03-18T13:04:21;99882.25;;;10.52;91.00
7026;BME280;3554;42.132;24.786;2023-03-18T13:06:55;99894.50;;;10.50;91.05
7026;BME280;3554;42.132;24.786;2023-03-18T13:09:26;99892.31;;;10.64;93.31
7026;BME280;3554;42.132;24.786;2023-03-18T13:12:05;99844.22;;;10.40;90.27
7026;BME280;3554;42.132;24.786;2023-03-18T13:14:49;99892.31;;;9.78;91.21
7026;BME280;3554;42.132;24.786;2023-03-18T13:17:22;99872.41;;;9.74;96.46
7026;BME280;3554;42.132;24.786;2023-03-18T13:19:51;99885.34;;;10.09;95.24
7026;BME280;3554;42.132;24.786;2023-03-18T13:22:54;99886.25;;;10.36;92.13
7026;BME280;3554;42.132;24.786;2023-03-18T13:25:34;99884.34;;;10.41;90.99